Time;durP1;ratioP1;P1;durP2;ratioP2;P2;SDS_P1;SDS_P2;PMS_P1;PMS_P2;Temp;Humidity;BMP_temperature;BMP_pressure;BME280_temperature;BME280_humidity;BME280_pressure;Samples;Min_cycle;Max_cycle;Signal;HPM_P1;HPM_P2
2022/11/28 00:02:12;;;;;;;21.05;10.30;;;;;;;;;;10531905;28;20286;-76
2022/11/28 00:07:12;;;;;;;17.00;9.32;;;;;;;;;;10500165;28;20047;-78
2022/11/28 00:12:13;;;;;;;20.95;9.65;;;;;;;;;;10529723;28;20487;-76
2022/11/28 00:17:13;;;;;;;20.77;11.33;;;;;;;;;;10531276;28;20101;-75
2022/11/28 00:22:13;;;;;;;22.83;10.50;;;;;;;;;;10531149;28;20118;-75
2022/11/28 00:27:13;;;;;;;22.02;10.38;;;;;;;;;;10530445;28;20028;-74
2022/11/28 00:32:15;;;;;;;17.25;9.73;;;;;;;;;;10512866;28;20024;-73
2022/11/28 00:37:15;;;;;;;18.52;9.57;;;;;;;;;;10529555;28;20036;-74
2022/11/28 00:42:19;;;;;;;24.15;10.35;;;;;;;;;;10531740;28;20043;-74
2022/11/28 00:47:20;;;;;;;21.02;10.48;;;;;;;;;;10531355;28;20085;-76
2022/11/28 00:52:20;;;;;;;15.55;8.57;;;;;;;;;;10531020;28;20437;-76
2022/11/28 00:57:21;;;;;;;17.27;8.65;;;;;;;;;;10530728;28;20028;-76
2022/11/28 01:02:21;;;;;;;19.58;7.95;;;;;;;;;;10511869;28;20548;-78
2022/11/28 01:07:21;;;;;;;14.95;8.90;;;;;;;;;;10528570;28;20024;-74
2022/11/28 01:12:21;;;;;;;17.58;9.50;;;;;;;;;;10532086;28;20026;-74
2022/11/28 01:17:22;;;;;;;22.13;10.95;;;;;;;;;;10543004;28;20027;-73
2022/11/28 01:22:22;;;;;;;16.52;8.38;;;;;;;;;;10553089;28;20016;-75
2022/11/28 01:27:22;;;;;;;20.73;10.60;;;;;;;;;;10535685;28;20035;-75
2022/11/28 01:32:22;;;;;;;20.38;8.85;;;;;;;;;;10518052;28;20032;-78
2022/11/28 01:37:23;;;;;;;16.88;8.32;;;;;;;;;;10526646;28;20031;-74
2022/11/28 01:42:23;;;;;;;12.20;6.95;;;;;;;;;;10553341;28;20048;-74
2022/11/28 01:47:26;;;;;;;16.00;7.50;;;;;;;;;;10518382;28;20040;-75
2022/11/28 01:52:26;;;;;;;13.45;6.55;;;;;;;;;;10540202;28;20799;-72
2022/11/28 01:57:26;;;;;;;12.75;6.93;;;;;;;;;;10551870;28;20028;-72
2022/11/28 02:02:36;;;;;;;13.13;5.80;;;;;;;;;;10537801;28;20020;-74
2022/11/28 02:07:37;;;;;;;11.88;5.97;;;;;;;;;;10521317;28;20028;-74
2022/11/28 02:12:58;;;;;;;10.23;5.90;;;;;;;;;;10535306;28;20479;-76
2022/11/28 02:18:04;;;;;;;11.15;6.38;;;;;;;;;;10516969;28;20038;-75
2022/11/28 02:23:04;;;;;;;7.40;5.32;;;;;;;;;;10516650;28;20096;-74
2022/11/28 02:28:28;;;;;;;11.45;5.88;;;;;;;;;;10534841;28;20020;-76
2022/11/28 02:33:28;;;;;;;7.72;5.25;;;;;;;;;;10516485;28;20551;-75
2022/11/28 02:38:35;;;;;;;11.88;4.90;;;;;;;;;;10515817;28;20089;-75
2022/11/28 02:43:39;;;;;;;10.25;5.40;;;;;;;;;;10538226;28;20027;-74
2022/11/28 02:48:59;;;;;;;8.90;5.85;;;;;;;;;;10533254;28;20480;-74
2022/11/28 02:54:01;;;;;;;10.25;5.55;;;;;;;;;;10546820;28;20074;-74
2022/11/28 02:59:02;;;;;;;7.43;4.40;;;;;;;;;;10515564;28;20030;-75
2022/11/28 03:04:18;;;;;;;7.15;4.40;;;;;;;;;;10533067;28;20487;-78
2022/11/28 03:09:18;;;;;;;8.30;4.70;;;;;;;;;;10514878;28;20030;-75
2022/11/28 03:14:18;;;;;;;6.85;4.32;;;;;;;;;;10514792;28;20501;-73
2022/11/28 03:19:24;;;;;;;8.30;4.85;;;;;;;;;;10531581;28;20023;-73
2022/11/28 03:24:24;;;;;;;9.05;4.55;;;;;;;;;;10532416;28;20039;-75
2022/11/28 03:29:30;;;;;;;6.35;4.05;;;;;;;;;;10532534;28;20027;-75
2022/11/28 03:34:33;;;;;;;7.68;5.03;;;;;;;;;;10512827;28;20095;-76
2022/11/28 03:39:39;;;;;;;8.43;3.97;;;;;;;;;;10513683;28;20043;-74
2022/11/28 03:44:45;;;;;;;6.32;3.60;;;;;;;;;;10513623;28;20024;-74
2022/11/28 03:49:49;;;;;;;6.22;3.58;;;;;;;;;;10513732;28;20055;-75
2022/11/28 03:54:50;;;;;;;5.57;3.90;;;;;;;;;;10566210;28;20020;-71
2022/11/28 03:59:52;;;;;;;6.32;3.75;;;;;;;;;;10590560;28;20032;-73
2022/11/28 04:04:56;;;;;;;4.97;3.33;;;;;;;;;;10530556;28;20031;-73
2022/11/28 04:10:06;;;;;;;5.47;3.35;;;;;;;;;;10542629;28;20051;-75
2022/11/28 04:15:25;;;;;;;5.25;3.80;;;;;;;;;;10530544;28;20095;-75
2022/11/28 04:20:34;;;;;;;4.60;3.35;;;;;;;;;;10513077;28;20551;-76
2022/11/28 04:25:36;;;;;;;5.20;3.42;;;;;;;;;;10512428;28;20024;-74
2022/11/28 04:30:37;;;;;;;4.32;2.95;;;;;;;;;;10516024;28;20035;-73
2022/11/28 04:35:43;;;;;;;5.03;2.97;;;;;;;;;;10569695;28;20015;-73
2022/11/28 04:40:47;;;;;;;4.90;3.00;;;;;;;;;;10537721;28;20047;-76
2022/11/28 04:45:49;;;;;;;6.05;3.92;;;;;;;;;;10550663;28;20399;-75
2022/11/28 04:51:00;;;;;;;5.80;3.47;;;;;;;;;;10538437;28;20471;-74
2022/11/28 04:56:04;;;;;;;3.83;2.67;;;;;;;;;;10569716;28;20059;-76
2022/11/28 05:01:06;;;;;;;5.03;2.90;;;;;;;;;;10538626;28;20050;-75
2022/11/28 05:06:07;;;;;;;5.75;3.78;;;;;;;;;;10572534;28;20035;-76
2022/11/28 05:11:07;;;;;;;6.50;3.70;;;;;;;;;;10562254;28;20027;-76
2022/11/28 05:16:08;;;;;;;5.80;4.03;;;;;;;;;;10536713;28;20031;-76
2022/11/28 05:21:09;;;;;;;5.70;3.53;;;;;;;;;;10519469;28;20034;-80
2022/11/28 05:26:10;;;;;;;7.50;4.75;;;;;;;;;;10518600;28;20506;-76
2022/11/28 05:31:11;;;;;;;5.85;4.60;;;;;;;;;;10546973;28;20020;-76
2022/11/28 05:36:13;;;;;;;5.57;3.95;;;;;;;;;;10560295;28;20410;-80
2022/11/28 05:41:18;;;;;;;7.68;4.25;;;;;;;;;;10570179;28;20043;-80
2022/11/28 05:46:19;;;;;;;9.00;4.35;;;;;;;;;;10531621;28;20028;-82
2022/11/28 05:51:19;;;;;;;10.80;6.28;;;;;;;;;;10534982;28;20016;-74
2022/11/28 05:56:32;;;;;;;8.52;5.65;;;;;;;;;;10555587;28;20483;-79
2022/11/28 06:01:33;;;;;;;11.50;5.75;;;;;;;;;;10576120;28;20027;-76
2022/11/28 06:06:34;;;;;;;10.40;6.35;;;;;;;;;;10582057;28;20475;-74
2022/11/28 06:11:34;;;;;;;7.97;5.45;;;;;;;;;;10571766;28;20031;-76
2022/11/28 06:16:36;;;;;;;11.40;6.33;;;;;;;;;;10551865;28;20057;-80
2022/11/28 06:21:36;;;;;;;10.02;6.90;;;;;;;;;;10540855;28;20055;-77
2022/11/28 06:26:37;;;;;;;9.20;6.82;;;;;;;;;;10534428;28;20142;-77
2022/11/28 06:31:37;;;;;;;11.80;7.95;;;;;;;;;;10573945;28;20376;-76
2022/11/28 06:36:37;;;;;;;10.88;7.82;;;;;;;;;;10558274;28;20028;-76
2022/11/28 06:41:38;;;;;;;10.40;6.57;;;;;;;;;;10567151;28;20051;-77
2022/11/28 06:46:38;;;;;;;11.10;6.22;;;;;;;;;;10565192;28;20290;-77
2022/11/28 06:51:40;;;;;;;14.75;6.57;;;;;;;;;;10514979;28;20024;-76
2022/11/28 06:56:41;;;;;;;12.35;6.28;;;;;;;;;;10522341;28;20174;-84
2022/11/28 07:01:42;;;;;;;12.75;6.57;;;;;;;;;;10521379;28;20084;-84
2022/11/28 07:06:43;;;;;;;12.25;7.72;;;;;;;;;;10514638;28;20085;-80
2022/11/28 07:11:44;;;;;;;16.00;7.97;;;;;;;;;;10530436;28;20400;-78
2022/11/28 07:16:44;;;;;;;18.67;8.75;;;;;;;;;;10532215;28;20031;-77
2022/11/28 07:21:44;;;;;;;13.73;7.47;;;;;;;;;;10531078;28;20483;-76
2022/11/28 07:26:46;;;;;;;7.55;5.03;;;;;;;;;;10533221;28;20028;-83
2022/11/28 07:31:46;;;;;;;10.50;6.30;;;;;;;;;;10531932;28;20514;-76
2022/11/28 07:36:46;;;;;;;11.47;5.07;;;;;;;;;;10530759;28;20024;-83
2022/11/28 07:41:47;;;;;;;7.57;4.57;;;;;;;;;;10530412;28;20047;-77
2022/11/28 07:46:47;;;;;;;10.03;5.17;;;;;;;;;;10534328;28;20048;-76
2022/11/28 07:51:47;;;;;;;7.40;4.63;;;;;;;;;;10529823;28;20020;-78
2022/11/28 07:56:47;;;;;;;9.23;4.80;;;;;;;;;;10543126;28;20117;-81
2022/11/28 08:01:48;;;;;;;10.73;4.53;;;;;;;;;;10533250;28;20445;-73
2022/11/28 08:06:48;;;;;;;10.40;4.47;;;;;;;;;;10554713;28;20443;-76
2022/11/28 08:11:51;;;;;;;8.48;5.50;;;;;;;;;;10551170;28;20422;-74
2022/11/28 08:16:51;;;;;;;8.93;4.97;;;;;;;;;;10557946;28;20023;-75
2022/11/28 08:21:51;;;;;;;7.97;5.53;;;;;;;;;;10551256;28;20462;-73
2022/11/28 08:26:52;;;;;;;9.95;5.93;;;;;;;;;;10538965;28;20495;-74
2022/11/28 08:31:53;;;;;;;10.77;5.75;;;;;;;;;;10544665;28;20054;-76
2022/11/28 08:36:53;;;;;;;6.78;4.13;;;;;;;;;;10533027;28;20114;-74
2022/11/28 08:41:58;;;;;;;11.20;6.10;;;;;;;;;;10528590;28;20043;-73
2022/11/28 08:46:59;;;;;;;5.40;3.95;;;;;;;;;;10542970;28;20042;-74
2022/11/28 08:51:59;;;;;;;7.75;4.85;;;;;;;;;;10538213;28;20499;-78
2022/11/28 08:57:02;;;;;;;5.97;4.18;;;;;;;;;;10569752;28;20031;-78
2022/11/28 09:02:03;;;;;;;6.97;3.97;;;;;;;;;;10542057;28;20196;-73
2022/11/28 09:07:03;;;;;;;10.65;4.95;;;;;;;;;;10543573;28;20024;-77
2022/11/28 09:12:03;;;;;;;9.52;5.05;;;;;;;;;;10530696;28;20016;-80
2022/11/28 09:17:04;;;;;;;7.72;4.47;;;;;;;;;;10560218;28;20015;-77
2022/11/28 09:22:04;;;;;;;6.80;4.45;;;;;;;;;;10548586;28;20096;-72
2022/11/28 09:27:05;;;;;;;5.18;3.47;;;;;;;;;;10527701;28;20036;-77
2022/11/28 09:32:06;;;;;;;4.40;3.40;;;;;;;;;;10552179;28;20024;-79
2022/11/28 09:37:07;;;;;;;7.10;3.55;;;;;;;;;;10531749;28;20019;-80
2022/11/28 09:42:24;;;;;;;4.50;3.42;;;;;;;;;;10563797;28;20430;-75
2022/11/28 09:47:27;;;;;;;4.10;2.80;;;;;;;;;;10552925;28;20060;-75
2022/11/28 09:52:39;;;;;;;2.67;2.15;;;;;;;;;;10538458;28;20015;-76
2022/11/28 09:57:42;;;;;;;3.25;2.63;;;;;;;;;;10545503;28;20043;-75
2022/11/28 10:02:49;;;;;;;3.55;2.10;;;;;;;;;;10535024;28;20020;-75
2022/11/28 10:08:04;;;;;;;2.45;1.77;;;;;;;;;;10541363;28;20031;-80
2022/11/28 10:13:11;;;;;;;3.60;1.77;;;;;;;;;;10535643;28;20398;-75
2022/11/28 10:18:18;;;;;;;4.25;1.50;;;;;;;;;;10532181;28;20031;-75
2022/11/28 10:23:25;;;;;;;2.70;2.03;;;;;;;;;;10530656;28;20039;-76
2022/11/28 10:28:29;;;;;;;4.20;2.53;;;;;;;;;;10555673;28;20032;-77
2022/11/28 10:33:32;;;;;;;4.38;2.63;;;;;;;;;;10540053;28;20320;-79
2022/11/28 10:38:37;;;;;;;5.05;2.58;;;;;;;;;;10531475;28;20127;-75
2022/11/28 10:43:37;;;;;;;1.63;1.17;;;;;;;;;;10499123;28;20499;-79
2022/11/28 10:48:44;;;;;;;4.03;2.22;;;;;;;;;;10527836;28;20031;-79
2022/11/28 10:53:44;;;;;;;2.33;1.80;;;;;;;;;;10542600;28;20020;-79
2022/11/28 10:58:54;;;;;;;3.88;2.67;;;;;;;;;;10559781;27;20038;-76
2022/11/28 11:03:57;;;;;;;2.65;1.58;;;;;;;;;;10531371;28;20118;-80
2022/11/28 11:08:57;;;;;;;2.92;1.88;;;;;;;;;;10541035;28;20032;-80
2022/11/28 11:14:08;;;;;;;3.15;1.85;;;;;;;;;;10543637;28;20402;-78
2022/11/28 11:19:21;;;;;;;3.40;2.03;;;;;;;;;;10531549;28;20484;-79
2022/11/28 11:24:21;;;;;;;6.07;3.03;;;;;;;;;;10510932;28;20410;-76
2022/11/28 11:29:34;;;;;;;3.75;2.25;;;;;;;;;;10509696;28;20035;-81
2022/11/28 11:34:41;;;;;;;6.60;3.58;;;;;;;;;;10533143;28;20035;-81
2022/11/28 11:39:45;;;;;;;4.63;3.38;;;;;;;;;;10528316;28;20119;-78
2022/11/28 11:44:51;;;;;;;4.88;2.60;;;;;;;;;;10524073;28;20457;-81
2022/11/28 11:50:00;;;;;;;3.05;2.15;;;;;;;;;;10518450;28;20161;-82
2022/11/28 11:55:02;;;;;;;8.07;2.65;;;;;;;;;;10527935;28;20019;-80
2022/11/28 12:00:06;;;;;;;3.85;2.90;;;;;;;;;;10510483;28;20110;-75
2022/11/28 12:05:13;;;;;;;2.85;2.17;;;;;;;;;;10509772;28;20566;-75
2022/11/28 12:10:16;;;;;;;7.90;3.58;;;;;;;;;;10533112;28;20629;-82
2022/11/28 12:15:21;;;;;;;7.85;4.07;;;;;;;;;;10533386;28;20102;-71
2022/11/28 12:20:47;;;;;;;8.93;4.32;;;;;;;;;;10539702;28;20102;-82
2022/11/28 12:25:53;;;;;;;7.32;4.15;;;;;;;;;;10535048;28;20499;-79
2022/11/28 12:31:12;;;;;;;6.43;4.25;;;;;;;;;;10559275;28;20503;-76
2022/11/28 12:36:20;;;;;;;8.50;4.60;;;;;;;;;;10535300;28;20069;-81
2022/11/28 12:41:29;;;;;;;8.53;4.73;;;;;;;;;;10517958;28;20047;-79
2022/11/28 12:46:38;;;;;;;10.40;4.90;;;;;;;;;;10546320;28;20036;-78
2022/11/28 12:51:58;;;;;;;9.20;5.00;;;;;;;;;;10551801;28;20062;-70
2022/11/28 12:57:01;;;;;;;6.53;4.50;;;;;;;;;;10560395;28;20487;-75
2022/11/28 13:02:15;;;;;;;17.88;5.38;;;;;;;;;;10571139;28;20027;-76
2022/11/28 13:07:27;;;;;;;7.57;4.28;;;;;;;;;;10584462;28;20024;-72
2022/11/28 13:12:33;;;;;;;10.38;4.70;;;;;;;;;;10526612;28;20028;-80
2022/11/28 13:17:47;;;;;;;8.60;4.05;;;;;;;;;;10531079;28;20401;-78
2022/11/28 13:23:02;;;;;;;11.20;4.85;;;;;;;;;;10566284;27;20035;-75
2022/11/28 13:28:25;;;;;;;11.57;5.75;;;;;;;;;;10547964;28;20066;-77
2022/11/28 13:33:47;;;;;;;9.07;5.40;;;;;;;;;;10558040;28;20106;-76
2022/11/28 13:39:00;;;;;;;13.23;6.78;;;;;;;;;;10549784;28;20040;-79
2022/11/28 13:44:25;;;;;;;11.55;6.80;;;;;;;;;;10548909;28;20040;-79
2022/11/28 13:49:28;;;;;;;15.68;6.97;;;;;;;;;;10569032;28;20031;-73
2022/11/28 13:54:40;;;;;;;11.75;5.45;;;;;;;;;;10584360;28;20395;-80
2022/11/28 13:59:45;;;;;;;8.88;4.85;;;;;;;;;;10551455;28;20023;-78
2022/11/28 14:04:46;;;;;;;6.00;3.30;;;;;;;;;;10561807;28;20046;-81
2022/11/28 14:10:05;;;;;;;4.70;3.30;;;;;;;;;;10559590;28;20050;-71
2022/11/28 14:15:28;;;;;;;5.10;3.03;;;;;;;;;;10567443;28;20032;-72
2022/11/28 14:20:43;;;;;;;5.35;3.95;;;;;;;;;;10555412;28;20036;-73
2022/11/28 14:25:44;;;;;;;8.95;4.00;;;;;;;;;;10582906;27;20035;-71
2022/11/28 14:30:45;;;;;;;7.25;4.13;;;;;;;;;;10551052;27;20035;-79
2022/11/28 14:35:48;;;;;;;6.35;3.50;;;;;;;;;;10555830;27;20047;-81
2022/11/28 14:41:18;;;;;;;6.70;4.13;;;;;;;;;;10566313;28;20374;-80
2022/11/28 14:46:25;;;;;;;6.57;3.90;;;;;;;;;;10554424;28;20055;-77
2022/11/28 14:51:45;;;;;;;10.38;5.15;;;;;;;;;;10564859;28;20035;-81
2022/11/28 14:56:53;;;;;;;11.30;5.63;;;;;;;;;;10549750;28;20085;-83
2022/11/28 15:01:53;;;;;;;;;;;;;;;;;;10552823;28;20035;-80
2022/11/28 15:07:03;;;;;;;11.80;6.15;;;;;;;;;;10547725;28;19972;-76
2022/11/28 15:12:28;;;;;;;14.45;6.40;;;;;;;;;;10584497;28;20015;-71
2022/11/28 15:17:32;;;;;;;12.27;4.35;;;;;;;;;;10589901;28;20031;-81
2022/11/28 15:22:44;;;;;;;10.15;4.55;;;;;;;;;;10581794;28;20046;-71
2022/11/28 15:27:45;;;;;;;13.02;4.18;;;;;;;;;;10562801;28;20088;-82
2022/11/28 15:32:46;;;;;;;8.88;5.13;;;;;;;;;;10546399;28;20065;-76
2022/11/28 15:37:49;;;;;;;10.70;4.05;;;;;;;;;;10556709;28;20492;-75
2022/11/28 15:42:50;;;;;;;10.88;4.05;;;;;;;;;;10558942;28;20047;-74
2022/11/28 15:47:52;;;;;;;8.38;4.05;;;;;;;;;;10547733;28;20039;-75
2022/11/28 15:52:57;;;;;;;11.02;4.07;;;;;;;;;;10539839;28;20034;-76
2022/11/28 15:58:17;;;;;;;5.38;3.65;;;;;;;;;;10547832;28;20572;-78
2022/11/28 16:03:21;;;;;;;8.38;4.53;;;;;;;;;;10536039;28;20035;-77
2022/11/28 16:08:21;;;;;;;8.18;5.10;;;;;;;;;;10559042;28;20031;-76
2022/11/28 16:13:23;;;;;;;11.32;5.50;;;;;;;;;;10563681;28;20487;-75
2022/11/28 16:18:25;;;;;;;8.43;4.53;;;;;;;;;;10545262;28;20062;-74
2022/11/28 16:23:34;;;;;;;11.73;5.97;;;;;;;;;;10540280;28;20103;-75
2022/11/28 16:28:39;;;;;;;8.80;6.00;;;;;;;;;;10533413;28;20119;-76
2022/11/28 16:33:43;;;;;;;13.73;6.82;;;;;;;;;;10538853;28;20020;-73
2022/11/28 16:38:44;;;;;;;16.63;7.15;;;;;;;;;;10529792;28;20028;-75
2022/11/28 16:43:54;;;;;;;14.80;7.70;;;;;;;;;;10532040;28;20510;-75
2022/11/28 16:48:57;;;;;;;14.20;8.50;;;;;;;;;;10525475;28;20032;-77
2022/11/28 16:53:59;;;;;;;18.60;9.52;;;;;;;;;;10577140;28;20521;-82
2022/11/28 16:59:08;;;;;;;13.98;7.30;;;;;;;;;;10547193;27;20313;-79
2022/11/28 17:04:22;;;;;;;17.98;7.82;;;;;;;;;;10571078;27;20031;-77
2022/11/28 17:09:22;;;;;;;13.65;7.32;;;;;;;;;;10552826;28;20019;-74
2022/11/28 17:14:22;;;;;;;12.13;6.95;;;;;;;;;;10568607;28;20546;-74
2022/11/28 17:19:23;;;;;;;16.23;6.50;;;;;;;;;;10573791;28;20023;-75
2022/11/28 17:24:25;;;;;;;15.20;7.18;;;;;;;;;;10592802;28;20545;-73
2022/11/28 17:29:28;;;;;;;11.52;6.32;;;;;;;;;;10589883;28;20070;-70
2022/11/28 17:34:31;;;;;;;12.07;5.93;;;;;;;;;;10598255;27;20088;-73
2022/11/28 17:39:31;;;;;;;8.20;5.15;;;;;;;;;;10570464;28;20031;-75
2022/11/28 17:44:34;;;;;;;7.95;4.93;;;;;;;;;;10545372;28;20470;-78
2022/11/28 17:49:35;;;;;;;7.47;5.38;;;;;;;;;;10550417;28;20127;-74
2022/11/28 17:54:38;;;;;;;9.93;5.22;;;;;;;;;;10550118;28;20027;-77
2022/11/28 17:59:38;;;;;;;10.30;6.32;;;;;;;;;;10563812;28;20027;-75
2022/11/28 18:04:39;;;;;;;8.70;5.30;;;;;;;;;;10545655;28;20494;-74
2022/11/28 18:09:39;;;;;;;8.82;5.45;;;;;;;;;;10572592;28;20028;-78
2022/11/28 18:14:40;;;;;;;13.98;6.70;;;;;;;;;;10566230;28;20041;-75
2022/11/28 18:19:40;;;;;;;14.48;7.03;;;;;;;;;;10567086;28;20114;-77
2022/11/28 18:24:40;;;;;;;14.65;7.80;;;;;;;;;;10537235;28;20023;-76
2022/11/28 18:29:40;;;;;;;20.15;11.20;;;;;;;;;;10566247;28;20049;-73
2022/11/28 18:34:40;;;;;;;26.05;11.23;;;;;;;;;;10554698;28;20028;-74
2022/11/28 18:39:43;;;;;;;28.35;13.70;;;;;;;;;;10556817;28;20546;-78
2022/11/28 18:44:43;;;;;;;28.10;14.38;;;;;;;;;;10543323;28;20578;-78
2022/11/28 18:49:44;;;;;;;20.73;11.20;;;;;;;;;;10558077;27;20033;-75
2022/11/28 18:54:44;;;;;;;18.63;9.57;;;;;;;;;;10540279;27;20127;-74
2022/11/28 18:59:45;;;;;;;13.63;7.90;;;;;;;;;;10548191;28;20038;-76
2022/11/28 19:04:45;;;;;;;13.25;6.68;;;;;;;;;;10555764;28;20122;-75
2022/11/28 19:09:46;;;;;;;14.10;6.25;;;;;;;;;;10561259;28;20039;-80
2022/11/28 19:14:47;;;;;;;11.98;6.22;;;;;;;;;;10534840;28;20550;-76
2022/11/28 19:19:48;;;;;;;17.02;7.55;;;;;;;;;;10535408;28;20800;-76
2022/11/28 19:24:48;;;;;;;10.77;6.20;;;;;;;;;;10570731;28;20027;-77
2022/11/28 19:29:51;;;;;;;10.32;5.13;;;;;;;;;;10549549;28;20042;-76
2022/11/28 19:34:52;;;;;;;7.13;3.30;;;;;;;;;;10539116;28;20020;-73
2022/11/28 19:39:55;;;;;;;7.28;2.97;;;;;;;;;;10576265;28;20048;-69
2022/11/28 19:44:56;;;;;;;5.55;2.38;;;;;;;;;;10572578;28;20055;-76
2022/11/28 19:49:58;;;;;;;8.27;1.70;;;;;;;;;;10565702;28;20063;-80
2022/11/28 19:54:59;;;;;;;3.38;1.73;;;;;;;;;;10543552;28;20015;-78
2022/11/28 20:00:01;;;;;;;2.85;1.55;;;;;;;;;;10541662;28;20119;-77
2022/11/28 20:05:03;;;;;;;2.72;1.60;;;;;;;;;;10553586;28;20111;-77
2022/11/28 20:10:07;;;;;;;2.47;1.85;;;;;;;;;;10521263;28;20093;-78
2022/11/28 20:15:08;;;;;;;3.00;1.65;;;;;;;;;;10542151;28;20175;-83
2022/11/28 20:20:09;;;;;;;3.03;1.65;;;;;;;;;;10547240;28;20026;-73
2022/11/28 20:25:10;;;;;;;3.22;1.60;;;;;;;;;;10549534;28;20031;-75
2022/11/28 20:30:12;;;;;;;2.50;1.50;;;;;;;;;;10534097;28;20020;-81
2022/11/28 20:35:12;;;;;;;2.72;1.92;;;;;;;;;;10530630;28;20565;-80
2022/11/28 20:40:13;;;;;;;2.47;1.80;;;;;;;;;;10540816;28;20123;-78
2022/11/28 20:45:14;;;;;;;2.42;1.77;;;;;;;;;;10540626;28;20034;-79
2022/11/28 20:50:14;;;;;;;4.90;1.93;;;;;;;;;;10531778;28;20038;-78
2022/11/28 20:55:15;;;;;;;3.50;2.00;;;;;;;;;;10531032;28;20269;-75
2022/11/28 21:00:17;;;;;;;3.08;1.92;;;;;;;;;;10534970;28;20059;-79
2022/11/28 21:05:19;;;;;;;4.50;3.10;;;;;;;;;;10536195;28;20031;-78
2022/11/28 21:10:19;;;;;;;3.63;2.42;;;;;;;;;;10525471;28;20035;-73
2022/11/28 21:15:19;;;;;;;4.00;1.70;;;;;;;;;;10551883;28;20081;-74
2022/11/28 21:20:22;;;;;;;5.03;2.13;;;;;;;;;;10559390;28;20291;-80
2022/11/28 21:25:23;;;;;;;3.90;2.53;;;;;;;;;;10550681;28;20032;-79
2022/11/28 21:30:23;;;;;;;4.07;2.03;;;;;;;;;;10531988;28;20027;-80
2022/11/28 21:35:24;;;;;;;4.10;2.05;;;;;;;;;;10569617;28;20027;-78
2022/11/28 21:40:25;;;;;;;2.45;1.58;;;;;;;;;;10551793;28;20426;-72
2022/11/28 21:45:25;;;;;;;4.97;2.08;;;;;;;;;;10565519;28;20028;-71
2022/11/28 21:50:25;;;;;;;4.60;2.70;;;;;;;;;;10590427;27;20333;-70
2022/11/28 21:55:25;;;;;;;3.85;2.20;;;;;;;;;;10576207;28;20012;-76
2022/11/28 22:00:27;;;;;;;4.25;2.58;;;;;;;;;;10575974;28;20032;-78
2022/11/28 22:05:48;;;;;;;3.83;2.83;;;;;;;;;;10564158;28;20453;-79
2022/11/28 22:10:48;;;;;;;5.43;3.13;;;;;;;;;;10539621;28;20028;-81
2022/11/28 22:15:53;;;;;;;4.20;2.65;;;;;;;;;;10547338;28;20478;-82
2022/11/28 22:20:59;;;;;;;7.35;3.38;;;;;;;;;;10541445;28;20028;-80
2022/11/28 22:26:01;;;;;;;7.15;3.78;;;;;;;;;;10565718;28;20497;-75
2022/11/28 22:31:09;;;;;;;11.82;3.35;;;;;;;;;;10542653;28;20107;-75
2022/11/28 22:36:11;;;;;;;7.53;4.03;;;;;;;;;;10539622;27;20034;-77
2022/11/28 22:41:17;;;;;;;5.57;3.67;;;;;;;;;;10549105;28;20036;-81
2022/11/28 22:46:19;;;;;;;8.35;3.78;;;;;;;;;;10545604;28;20425;-79
2022/11/28 22:51:22;;;;;;;11.13;4.13;;;;;;;;;;10568199;28;20062;-80
2022/11/28 22:56:22;;;;;;;7.45;3.90;;;;;;;;;;10531289;28;20081;-73
2022/11/28 23:01:25;;;;;;;8.82;4.40;;;;;;;;;;10537904;28;20467;-81
2022/11/28 23:06:27;;;;;;;7.85;3.80;;;;;;;;;;10537486;28;20032;-79
2022/11/28 23:11:29;;;;;;;8.00;4.43;;;;;;;;;;10522547;28;20096;-79
2022/11/28 23:16:29;;;;;;;10.85;3.90;;;;;;;;;;10578091;28;20037;-77
2022/11/28 23:21:31;;;;;;;4.82;3.20;;;;;;;;;;10561818;28;20047;-74
2022/11/28 23:26:31;;;;;;;4.65;3.08;;;;;;;;;;10540385;28;20547;-76
2022/11/28 23:31:33;;;;;;;7.78;3.17;;;;;;;;;;10512086;28;20019;-77
2022/11/28 23:36:36;;;;;;;3.88;2.47;;;;;;;;;;10510241;28;20484;-77
2022/11/28 23:41:37;;;;;;;5.22;3.42;;;;;;;;;;10520867;28;20624;-74
2022/11/28 23:46:38;;;;;;;5.35;2.97;;;;;;;;;;10543627;28;20020;-74
2022/11/28 23:51:39;;;;;;;5.75;3.05;;;;;;;;;;10549096;28;21005;-69
2022/11/28 23:56:40;;;;;;;5.00;2.83;;;;;;;;;;10560504;28;20050;-70
